sensor_id;sensor_type;location;lat;lon;timestamp;pressure;altitude;pressure_sealevel;temperature;humidity
30819;BME280;17546;42.674;23.284;2022-12-07T00:02:14;94715.72;;;14.24;45.50
30819;BME280;17546;42.674;23.284;2022-12-07T00:04:40;94704.09;;;14.20;45.52
30819;BME280;17546;42.674;23.284;2022-12-07T00:07:05;94703.03;;;14.23;45.46
30819;BME280;17546;42.674;23.284;2022-12-07T00:09:30;94701.81;;;14.19;45.64
30819;BME280;17546;42.674;23.284;2022-12-07T00:11:56;94704.19;;;14.09;45.91
30819;BME280;17546;42.674;23.284;2022-12-07T00:14:21;94703.72;;;14.05;46.03
30819;BME280;17546;42.674;23.284;2022-12-07T00:16:49;94692.00;;;14.12;45.97
30819;BME280;17546;42.674;23.284;2022-12-07T00:19:15;94696.94;;;14.25;45.62
30819;BME280;17546;42.674;23.284;2022-12-07T00:21:41;94699.97;;;14.27;45.54
30819;BME280;17546;42.674;23.284;2022-12-07T00:24:06;94703.78;;;14.24;45.76
30819;BME280;17546;42.674;23.284;2022-12-07T00:26:37;94704.72;;;14.32;45.64
30819;BME280;17546;42.674;23.284;2022-12-07T00:29:16;94703.97;;;14.32;45.72
30819;BME280;17546;42.674;23.284;2022-12-07T00:31:42;94701.88;;;14.38;45.61
30819;BME280;17546;42.674;23.284;2022-12-07T00:34:12;94694.78;;;14.37;45.60
30819;BME280;17546;42.674;23.284;2022-12-07T00:36:38;94700.84;;;14.41;45.47
30819;BME280;17546;42.674;23.284;2022-12-07T00:39:04;94713.94;;;14.46;45.30
30819;BME280;17546;42.674;23.284;2022-12-07T00:41:29;94704.13;;;14.39;45.55
30819;BME280;17546;42.674;23.284;2022-12-07T00:43:55;94701.06;;;14.43;45.61
30819;BME280;17546;42.674;23.284;2022-12-07T00:46:22;94702.03;;;14.45;45.34
30819;BME280;17546;42.674;23.284;2022-12-07T00:48:48;94696.72;;;14.23;45.73
30819;BME280;17546;42.674;23.284;2022-12-07T00:51:16;94700.59;;;14.39;45.64
30819;BME280;17546;42.674;23.284;2022-12-07T00:53:42;94704.44;;;14.36;45.94
30819;BME280;17546;42.674;23.284;2022-12-07T00:56:26;94700.72;;;14.27;45.90
30819;BME280;17546;42.674;23.284;2022-12-07T00:58:52;94699.50;;;14.23;45.92
30819;BME280;17546;42.674;23.284;2022-12-07T01:01:18;94705.47;;;14.33;46.01
30819;BME280;17546;42.674;23.284;2022-12-07T01:03:43;94702.34;;;14.17;46.37
30819;BME280;17546;42.674;23.284;2022-12-07T01:06:09;94694.66;;;13.99;46.44
30819;BME280;17546;42.674;23.284;2022-12-07T01:08:34;94699.19;;;14.02;46.54
30819;BME280;17546;42.674;23.284;2022-12-07T01:11:06;94690.38;;;13.98;46.60
30819;BME280;17546;42.674;23.284;2022-12-07T01:13:32;94689.69;;;13.92;46.67
30819;BME280;17546;42.674;23.284;2022-12-07T01:16:15;94690.91;;;13.96;46.67
30819;BME280;17546;42.674;23.284;2022-12-07T01:18:41;94689.56;;;14.03;46.72
30819;BME280;17546;42.674;23.284;2022-12-07T01:21:12;94686.72;;;14.09;46.43
30819;BME280;17546;42.674;23.284;2022-12-07T01:23:38;94681.09;;;13.90;46.66
30819;BME280;17546;42.674;23.284;2022-12-07T01:26:06;94674.00;;;13.89;46.77
30819;BME280;17546;42.674;23.284;2022-12-07T01:28:32;94670.59;;;13.71;47.07
30819;BME280;17546;42.674;23.284;2022-12-07T01:31:05;94676.34;;;13.84;46.69
30819;BME280;17546;42.674;23.284;2022-12-07T01:33:35;94669.66;;;13.93;46.60
30819;BME280;17546;42.674;23.284;2022-12-07T01:36:31;94674.34;;;14.04;46.56
30819;BME280;17546;42.674;23.284;2022-12-07T01:38:59;94676.50;;;13.92;46.78
30819;BME280;17546;42.674;23.284;2022-12-07T01:41:28;94677.22;;;13.98;46.70
30819;BME280;17546;42.674;23.284;2022-12-07T01:44:23;94680.22;;;14.00;46.88
30819;BME280;17546;42.674;23.284;2022-12-07T01:46:54;94672.34;;;14.04;46.52
30819;BME280;17546;42.674;23.284;2022-12-07T01:52:29;94673.59;;;14.03;46.41
30819;BME280;17546;42.674;23.284;2022-12-07T01:55:04;94674.94;;;13.97;46.67
30819;BME280;17546;42.674;23.284;2022-12-07T01:57:33;94664.97;;;13.82;46.91
30819;BME280;17546;42.674;23.284;2022-12-07T02:00:00;94662.97;;;13.77;46.94
30819;BME280;17546;42.674;23.284;2022-12-07T02:02:29;94662.06;;;13.94;46.64
30819;BME280;17546;42.674;23.284;2022-12-07T02:04:59;94656.97;;;13.98;46.64
30819;BME280;17546;42.674;23.284;2022-12-07T02:07:34;94652.44;;;13.95;46.81
30819;BME280;17546;42.674;23.284;2022-12-07T02:10:18;94668.78;;;14.04;46.59
30819;BME280;17546;42.674;23.284;2022-12-07T02:12:46;94661.25;;;13.99;46.59
30819;BME280;17546;42.674;23.284;2022-12-07T02:15:12;94657.28;;;13.89;46.60
30819;BME280;17546;42.674;23.284;2022-12-07T02:26:20;94653.38;;;14.03;46.59
30819;BME280;17546;42.674;23.284;2022-12-07T02:31:30;94648.81;;;14.00;46.59
30819;BME280;17546;42.674;23.284;2022-12-07T02:34:09;94652.06;;;14.04;46.32
30819;BME280;17546;42.674;23.284;2022-12-07T02:36:42;94645.47;;;14.07;46.56
30819;BME280;17546;42.674;23.284;2022-12-07T02:39:18;94654.53;;;14.13;46.38
30819;BME280;17546;42.674;23.284;2022-12-07T02:41:59;94646.28;;;14.02;46.39
30819;BME280;17546;42.674;23.284;2022-12-07T02:44:28;94648.03;;;14.05;46.24
30819;BME280;17546;42.674;23.284;2022-12-07T02:46:59;94649.75;;;14.08;46.34
30819;BME280;17546;42.674;23.284;2022-12-07T02:49:27;94642.63;;;14.13;46.03
30819;BME280;17546;42.674;23.284;2022-12-07T02:51:53;94645.00;;;14.03;46.27
30819;BME280;17546;42.674;23.284;2022-12-07T02:54:20;94633.03;;;13.83;46.47
30819;BME280;17546;42.674;23.284;2022-12-07T02:56:48;94634.16;;;13.99;46.21
30819;BME280;17546;42.674;23.284;2022-12-07T03:02:14;94628.56;;;13.99;46.28
30819;BME280;17546;42.674;23.284;2022-12-07T03:05:11;94623.94;;;14.08;46.08
30819;BME280;17546;42.674;23.284;2022-12-07T03:10:31;94619.94;;;14.03;45.98
30819;BME280;17546;42.674;23.284;2022-12-07T03:15:49;94619.72;;;14.01;46.00
30819;BME280;17546;42.674;23.284;2022-12-07T03:18:19;94619.72;;;14.01;46.12
30819;BME280;17546;42.674;23.284;2022-12-07T03:20:48;94618.19;;;14.00;46.13
30819;BME280;17546;42.674;23.284;2022-12-07T03:23:17;94621.28;;;13.96;46.10
30819;BME280;17546;42.674;23.284;2022-12-07T03:25:47;94620.19;;;13.80;46.43
30819;BME280;17546;42.674;23.284;2022-12-07T03:28:17;94621.31;;;13.91;45.98
30819;BME280;17546;42.674;23.284;2022-12-07T03:30:55;94628.66;;;13.94;46.12
30819;BME280;17546;42.674;23.284;2022-12-07T03:36:39;94631.19;;;13.92;46.43
30819;BME280;17546;42.674;23.284;2022-12-07T03:39:16;94625.09;;;13.93;46.47
30819;BME280;17546;42.674;23.284;2022-12-07T03:41:45;94621.78;;;13.95;46.31
30819;BME280;17546;42.674;23.284;2022-12-07T03:44:11;94626.84;;;13.96;46.53
30819;BME280;17546;42.674;23.284;2022-12-07T03:46:44;94617.28;;;13.92;46.60
30819;BME280;17546;42.674;23.284;2022-12-07T03:49:27;94629.44;;;13.89;46.60
30819;BME280;17546;42.674;23.284;2022-12-07T03:55:00;94630.31;;;13.78;46.76
30819;BME280;17546;42.674;23.284;2022-12-07T03:57:30;94621.91;;;13.83;46.77
30819;BME280;17546;42.674;23.284;2022-12-07T03:59:58;94623.94;;;13.83;46.75
30819;BME280;17546;42.674;23.284;2022-12-07T04:02:26;94618.06;;;13.87;46.67
30819;BME280;17546;42.674;23.284;2022-12-07T04:04:53;94614.06;;;13.82;46.76
30819;BME280;17546;42.674;23.284;2022-12-07T04:07:19;94611.25;;;13.88;46.66
30819;BME280;17546;42.674;23.284;2022-12-07T04:09:44;94614.13;;;14.01;46.51
30819;BME280;17546;42.674;23.284;2022-12-07T04:12:10;94615.63;;;14.02;46.48
30819;BME280;17546;42.674;23.284;2022-12-07T04:14:35;94612.50;;;13.87;46.41
30819;BME280;17546;42.674;23.284;2022-12-07T04:17:00;94608.22;;;13.85;46.35
30819;BME280;17546;42.674;23.284;2022-12-07T04:19:31;94611.25;;;13.88;46.34
30819;BME280;17546;42.674;23.284;2022-12-07T04:21:59;94615.97;;;13.68;46.73
30819;BME280;17546;42.674;23.284;2022-12-07T04:24:25;94615.94;;;13.43;47.28
30819;BME280;17546;42.674;23.284;2022-12-07T04:26:51;94619.09;;;13.29;47.54
30819;BME280;17546;42.674;23.284;2022-12-07T04:29:16;94605.91;;;13.35;47.31
30819;BME280;17546;42.674;23.284;2022-12-07T04:31:42;94617.22;;;13.42;47.27
30819;BME280;17546;42.674;23.284;2022-12-07T04:34:08;94618.16;;;13.51;47.37
30819;BME280;17546;42.674;23.284;2022-12-07T04:36:34;94613.72;;;13.36;47.43
30819;BME280;17546;42.674;23.284;2022-12-07T04:39:00;94617.44;;;13.44;47.37
30819;BME280;17546;42.674;23.284;2022-12-07T04:41:26;94620.94;;;13.51;47.15
30819;BME280;17546;42.674;23.284;2022-12-07T04:43:56;94628.19;;;13.59;46.87
30819;BME280;17546;42.674;23.284;2022-12-07T04:46:23;94633.53;;;13.57;46.90
30819;BME280;17546;42.674;23.284;2022-12-07T04:48:49;94627.22;;;13.57;46.94
30819;BME280;17546;42.674;23.284;2022-12-07T04:51:26;94629.41;;;13.64;46.88
30819;BME280;17546;42.674;23.284;2022-12-07T04:53:55;94623.22;;;13.52;46.90
30819;BME280;17546;42.674;23.284;2022-12-07T04:56:22;94622.69;;;13.54;47.10
30819;BME280;17546;42.674;23.284;2022-12-07T04:58:48;94625.69;;;13.56;46.87
30819;BME280;17546;42.674;23.284;2022-12-07T05:01:15;94631.09;;;13.48;46.98
30819;BME280;17546;42.674;23.284;2022-12-07T05:03:41;94623.06;;;13.39;47.29
30819;BME280;17546;42.674;23.284;2022-12-07T05:06:07;94631.94;;;13.37;47.58
30819;BME280;17546;42.674;23.284;2022-12-07T05:08:33;94630.94;;;13.35;47.63
30819;BME280;17546;42.674;23.284;2022-12-07T05:10:59;94632.66;;;13.38;47.32
30819;BME280;17546;42.674;23.284;2022-12-07T05:13:25;94631.94;;;13.37;47.29
30819;BME280;17546;42.674;23.284;2022-12-07T05:15:50;94625.84;;;13.39;47.34
30819;BME280;17546;42.674;23.284;2022-12-07T05:18:16;94627.31;;;13.46;47.22
30819;BME280;17546;42.674;23.284;2022-12-07T05:20:42;94624.28;;;13.43;47.06
30819;BME280;17546;42.674;23.284;2022-12-07T05:23:08;94626.56;;;13.45;47.25
30819;BME280;17546;42.674;23.284;2022-12-07T05:25:34;94627.56;;;13.48;47.00
30819;BME280;17546;42.674;23.284;2022-12-07T05:27:59;94623.72;;;13.51;47.05
30819;BME280;17546;42.674;23.284;2022-12-07T05:30:25;94630.47;;;13.61;47.06
30819;BME280;17546;42.674;23.284;2022-12-07T05:32:51;94628.25;;;13.54;46.89
30819;BME280;17546;42.674;23.284;2022-12-07T05:35:17;94618.63;;;13.55;46.91
30819;BME280;17546;42.674;23.284;2022-12-07T05:37:43;94616.09;;;13.57;46.91
30819;BME280;17546;42.674;23.284;2022-12-07T05:40:09;94622.13;;;13.61;46.92
30819;BME280;17546;42.674;23.284;2022-12-07T05:42:34;94612.50;;;13.62;46.81
30819;BME280;17546;42.674;23.284;2022-12-07T05:45:00;94617.50;;;13.69;46.73
30819;BME280;17546;42.674;23.284;2022-12-07T05:47:25;94608.25;;;13.55;46.92
30819;BME280;17546;42.674;23.284;2022-12-07T05:49:51;94603.59;;;13.69;46.58
30819;BME280;17546;42.674;23.284;2022-12-07T05:52:16;94600.59;;;13.61;46.84
30819;BME280;17546;42.674;23.284;2022-12-07T05:54:42;94603.63;;;13.63;46.73
30819;BME280;17546;42.674;23.284;2022-12-07T05:57:07;94604.84;;;13.68;46.49
30819;BME280;17546;42.674;23.284;2022-12-07T05:59:33;94609.34;;;13.71;46.50
30819;BME280;17546;42.674;23.284;2022-12-07T06:02:01;94612.00;;;13.58;46.89
30819;BME280;17546;42.674;23.284;2022-12-07T06:04:32;94601.56;;;13.70;46.61
30819;BME280;17546;42.674;23.284;2022-12-07T06:06:58;94614.94;;;13.71;46.60
30819;BME280;17546;42.674;23.284;2022-12-07T06:09:25;94619.56;;;13.63;46.83
30819;BME280;17546;42.674;23.284;2022-12-07T06:11:51;94620.97;;;13.75;46.72
30819;BME280;17546;42.674;23.284;2022-12-07T06:14:36;94617.94;;;13.73;46.85
30819;BME280;17546;42.674;23.284;2022-12-07T06:17:01;94618.53;;;13.66;46.73
30819;BME280;17546;42.674;23.284;2022-12-07T06:19:27;94625.75;;;13.80;46.59
30819;BME280;17546;42.674;23.284;2022-12-07T06:21:53;94625.19;;;13.82;46.48
30819;BME280;17546;42.674;23.284;2022-12-07T06:24:19;94621.66;;;13.81;46.45
30819;BME280;17546;42.674;23.284;2022-12-07T06:26:44;94628.00;;;13.82;46.70
30819;BME280;17546;42.674;23.284;2022-12-07T06:29:10;94628.00;;;13.82;46.65
30819;BME280;17546;42.674;23.284;2022-12-07T06:31:36;94622.03;;;13.72;46.92
30819;BME280;17546;42.674;23.284;2022-12-07T06:37:23;94631.34;;;13.44;47.23
30819;BME280;17546;42.674;23.284;2022-12-07T06:43:10;94638.06;;;13.60;47.16
30819;BME280;17546;42.674;23.284;2022-12-07T06:45:36;94641.25;;;13.70;47.12
30819;BME280;17546;42.674;23.284;2022-12-07T06:48:01;94642.59;;;13.63;47.12
30819;BME280;17546;42.674;23.284;2022-12-07T06:57:10;94638.84;;;13.55;47.36
30819;BME280;17546;42.674;23.284;2022-12-07T06:59:36;94645.13;;;13.61;47.24
30819;BME280;17546;42.674;23.284;2022-12-07T07:02:01;94646.19;;;13.58;47.47
30819;BME280;17546;42.674;23.284;2022-12-07T07:04:26;94642.56;;;13.69;47.41
30819;BME280;17546;42.674;23.284;2022-12-07T07:06:52;94638.63;;;13.53;47.46
30819;BME280;17546;42.674;23.284;2022-12-07T07:12:39;94640.63;;;13.58;47.49
30819;BME280;17546;42.674;23.284;2022-12-07T07:15:05;94637.06;;;13.58;47.29
30819;BME280;17546;42.674;23.284;2022-12-07T07:17:31;94644.81;;;13.40;47.53
30819;BME280;17546;42.674;23.284;2022-12-07T07:19:56;94638.53;;;13.34;47.91
30819;BME280;17546;42.674;23.284;2022-12-07T07:22:21;94635.44;;;13.43;47.70
30819;BME280;17546;42.674;23.284;2022-12-07T07:24:47;94643.72;;;13.49;47.47
30819;BME280;17546;42.674;23.284;2022-12-07T07:27:12;94640.50;;;13.39;47.96
30819;BME280;17546;42.674;23.284;2022-12-07T07:29:37;94651.84;;;13.47;47.58
30819;BME280;17546;42.674;23.284;2022-12-07T07:35:30;94652.44;;;13.34;48.12
30819;BME280;17546;42.674;23.284;2022-12-07T07:37:56;94638.28;;;13.32;48.05
30819;BME280;17546;42.674;23.284;2022-12-07T07:40:22;94653.00;;;13.21;48.67
30819;BME280;17546;42.674;23.284;2022-12-07T07:42:49;94650.16;;;13.38;48.33
30819;BME280;17546;42.674;23.284;2022-12-07T07:45:15;94650.59;;;13.42;48.38
30819;BME280;17546;42.674;23.284;2022-12-07T07:47:41;94645.13;;;13.31;48.10
30819;BME280;17546;42.674;23.284;2022-12-07T07:50:06;94641.03;;;13.38;48.09
30819;BME280;17546;42.674;23.284;2022-12-07T07:52:32;94650.22;;;13.57;47.82
30819;BME280;17546;42.674;23.284;2022-12-07T07:54:57;94648.44;;;13.60;47.82
30819;BME280;17546;42.674;23.284;2022-12-07T07:57:23;94647.09;;;13.67;47.90
30819;BME280;17546;42.674;23.284;2022-12-07T07:59:48;94647.78;;;13.78;47.41
30819;BME280;17546;42.674;23.284;2022-12-07T08:02:19;94642.09;;;13.90;47.25
30819;BME280;17546;42.674;23.284;2022-12-07T08:04:44;94646.09;;;13.70;47.71
30819;BME280;17546;42.674;23.284;2022-12-07T08:07:10;94644.13;;;13.89;47.33
30819;BME280;17546;42.674;23.284;2022-12-07T08:09:37;94635.94;;;13.97;46.90
30819;BME280;17546;42.674;23.284;2022-12-07T08:12:03;94643.72;;;14.04;47.10
30819;BME280;17546;42.674;23.284;2022-12-07T08:14:28;94632.34;;;14.02;47.09
30819;BME280;17546;42.674;23.284;2022-12-07T08:16:54;94639.19;;;13.76;47.07
30819;BME280;17546;42.674;23.284;2022-12-07T08:19:19;94643.66;;;13.85;47.10
30819;BME280;17546;42.674;23.284;2022-12-07T08:21:44;94633.72;;;13.65;47.62
30819;BME280;17546;42.674;23.284;2022-12-07T08:24:10;94637.13;;;13.82;46.72
30819;BME280;17546;42.674;23.284;2022-12-07T08:26:35;94642.00;;;14.01;46.61
30819;BME280;17546;42.674;23.284;2022-12-07T08:29:01;94639.59;;;14.11;46.58
30819;BME280;17546;42.674;23.284;2022-12-07T08:31:26;94648.41;;;14.15;46.67
30819;BME280;17546;42.674;23.284;2022-12-07T08:33:53;94642.81;;;14.20;46.49
30819;BME280;17546;42.674;23.284;2022-12-07T08:36:18;94649.72;;;14.14;46.50
30819;BME280;17546;42.674;23.284;2022-12-07T08:38:44;94636.94;;;14.24;46.42
30819;BME280;17546;42.674;23.284;2022-12-07T08:41:10;94649.00;;;14.32;46.02
30819;BME280;17546;42.674;23.284;2022-12-07T08:43:35;94633.50;;;14.37;46.00
30819;BME280;17546;42.674;23.284;2022-12-07T08:46:21;94633.66;;;14.44;46.02
30819;BME280;17546;42.674;23.284;2022-12-07T08:48:57;94629.53;;;14.51;45.73
30819;BME280;17546;42.674;23.284;2022-12-07T08:51:24;94626.97;;;14.53;45.77
30819;BME280;17546;42.674;23.284;2022-12-07T08:53:53;94634.03;;;14.60;45.74
30819;BME280;17546;42.674;23.284;2022-12-07T08:56:20;94629.00;;;14.53;45.92
30819;BME280;17546;42.674;23.284;2022-12-07T08:58:46;94626.91;;;14.59;45.77
30819;BME280;17546;42.674;23.284;2022-12-07T09:01:12;94628.59;;;14.67;45.81
30819;BME280;17546;42.674;23.284;2022-12-07T09:03:37;94620.00;;;14.65;45.94
30819;BME280;17546;42.674;23.284;2022-12-07T09:06:03;94607.34;;;14.64;46.00
30819;BME280;17546;42.674;23.284;2022-12-07T09:08:35;94606.06;;;14.65;45.86
30819;BME280;17546;42.674;23.284;2022-12-07T09:11:01;94609.91;;;14.62;45.94
30819;BME280;17546;42.674;23.284;2022-12-07T09:13:27;94601.63;;;14.76;45.58
30819;BME280;17546;42.674;23.284;2022-12-07T09:15:52;94609.16;;;14.81;45.48
30819;BME280;17546;42.674;23.284;2022-12-07T09:18:17;94612.63;;;14.87;45.36
30819;BME280;17546;42.674;23.284;2022-12-07T09:20:43;94609.97;;;14.76;45.66
30819;BME280;17546;42.674;23.284;2022-12-07T09:23:08;94610.44;;;14.80;45.55
30819;BME280;17546;42.674;23.284;2022-12-07T09:25:42;94614.28;;;14.96;45.67
30819;BME280;17546;42.674;23.284;2022-12-07T09:28:08;94597.00;;;14.97;45.18
30819;BME280;17546;42.674;23.284;2022-12-07T09:30:34;94589.84;;;14.83;45.12
30819;BME280;17546;42.674;23.284;2022-12-07T09:32:59;94591.78;;;14.88;45.18
30819;BME280;17546;42.674;23.284;2022-12-07T09:35:25;94589.66;;;14.62;45.81
30819;BME280;17546;42.674;23.284;2022-12-07T09:37:50;94579.94;;;14.69;45.92
30819;BME280;17546;42.674;23.284;2022-12-07T09:40:17;94586.75;;;14.67;45.49
30819;BME280;17546;42.674;23.284;2022-12-07T09:42:54;94578.09;;;14.71;45.38
30819;BME280;17546;42.674;23.284;2022-12-07T09:45:31;94578.91;;;14.66;45.50
30819;BME280;17546;42.674;23.284;2022-12-07T09:47:58;94579.56;;;14.34;46.10
30819;BME280;17546;42.674;23.284;2022-12-07T09:50:26;94576.41;;;14.24;46.56
30819;BME280;17546;42.674;23.284;2022-12-07T09:52:54;94579.28;;;14.38;46.45
30819;BME280;17546;42.674;23.284;2022-12-07T09:55:25;94571.50;;;14.55;46.21
30819;BME280;17546;42.674;23.284;2022-12-07T09:57:53;94566.88;;;14.77;45.91
30819;BME280;17546;42.674;23.284;2022-12-07T10:00:20;94568.00;;;14.87;45.89
30819;BME280;17546;42.674;23.284;2022-12-07T10:02:55;94566.94;;;14.90;45.71
30819;BME280;17546;42.674;23.284;2022-12-07T10:05:28;94571.28;;;15.04;45.37
30819;BME280;17546;42.674;23.284;2022-12-07T10:07:55;94562.53;;;15.14;45.38
30819;BME280;17546;42.674;23.284;2022-12-07T10:10:26;94559.78;;;15.27;45.32
30819;BME280;17546;42.674;23.284;2022-12-07T10:15:50;94552.06;;;15.33;44.95
30819;BME280;17546;42.674;23.284;2022-12-07T10:21:20;94549.75;;;15.50;44.87
30819;BME280;17546;42.674;23.284;2022-12-07T10:24:21;94534.94;;;15.69;44.46
30819;BME280;17546;42.674;23.284;2022-12-07T10:31:40;94523.94;;;14.99;45.13
30819;BME280;17546;42.674;23.284;2022-12-07T10:34:21;94519.19;;;15.13;44.57
30819;BME280;17546;42.674;23.284;2022-12-07T10:36:47;94520.59;;;15.19;44.36
30819;BME280;17546;42.674;23.284;2022-12-07T10:39:18;94512.97;;;15.20;44.58
30819;BME280;17546;42.674;23.284;2022-12-07T10:42:22;94511.69;;;15.34;44.30
30819;BME280;17546;42.674;23.284;2022-12-07T10:44:50;94511.09;;;15.55;44.29
30819;BME280;17546;42.674;23.284;2022-12-07T10:47:27;94510.22;;;15.33;44.33
30819;BME280;17546;42.674;23.284;2022-12-07T10:50:02;94509.16;;;15.49;44.02
30819;BME280;17546;42.674;23.284;2022-12-07T10:53:17;94500.56;;;15.47;44.21
30819;BME280;17546;42.674;23.284;2022-12-07T10:58:31;94492.66;;;15.78;43.70
30819;BME280;17546;42.674;23.284;2022-12-07T11:01:25;94487.69;;;15.98;44.04
30819;BME280;17546;42.674;23.284;2022-12-07T11:03:55;94483.19;;;15.95;43.91
30819;BME280;17546;42.674;23.284;2022-12-07T11:06:47;94485.03;;;15.06;44.61
30819;BME280;17546;42.674;23.284;2022-12-07T11:18:23;94460.34;;;16.30;42.73
30819;BME280;17546;42.674;23.284;2022-12-07T11:23:53;94467.34;;;16.24;42.71
30819;BME280;17546;42.674;23.284;2022-12-07T11:29:24;94455.38;;;16.37;42.62
30819;BME280;17546;42.674;23.284;2022-12-07T11:37:18;94433.72;;;16.29;42.07
30819;BME280;17546;42.674;23.284;2022-12-07T11:39:55;94433.53;;;16.14;42.24
30819;BME280;17546;42.674;23.284;2022-12-07T11:42:29;94435.06;;;16.02;42.54
30819;BME280;17546;42.674;23.284;2022-12-07T11:45:15;94440.59;;;16.15;42.14
30819;BME280;17546;42.674;23.284;2022-12-07T11:50:47;94437.56;;;16.61;41.71
30819;BME280;17546;42.674;23.284;2022-12-07T11:53:18;94432.03;;;16.68;41.53
30819;BME280;17546;42.674;23.284;2022-12-07T11:55:54;94430.78;;;16.90;41.28
30819;BME280;17546;42.674;23.284;2022-12-07T12:00:48;94426.31;;;16.95;40.85
30819;BME280;17546;42.674;23.284;2022-12-07T12:03:22;94417.94;;;16.74;41.07
30819;BME280;17546;42.674;23.284;2022-12-07T12:05:58;94422.59;;;16.03;42.71
30819;BME280;17546;42.674;23.284;2022-12-07T12:22:48;94391.31;;;16.60;41.49
30819;BME280;17546;42.674;23.284;2022-12-07T12:25:26;94399.28;;;16.00;42.41
30819;BME280;17546;42.674;23.284;2022-12-07T12:27:55;94385.69;;;16.18;42.05
30819;BME280;17546;42.674;23.284;2022-12-07T12:32:51;94380.50;;;16.01;42.11
30819;BME280;17546;42.674;23.284;2022-12-07T12:35:28;94376.88;;;15.66;43.04
30819;BME280;17546;42.674;23.284;2022-12-07T12:37:54;94368.59;;;14.67;45.31
30819;BME280;17546;42.674;23.284;2022-12-07T12:42:50;94368.00;;;16.02;42.79
30819;BME280;17546;42.674;23.284;2022-12-07T12:45:26;94364.97;;;16.13;42.34
30819;BME280;17546;42.674;23.284;2022-12-07T12:47:52;94370.56;;;16.13;42.39
30819;BME280;17546;42.674;23.284;2022-12-07T12:50:24;94363.13;;;16.16;42.42
30819;BME280;17546;42.674;23.284;2022-12-07T12:53:24;94367.00;;;16.47;41.87
30819;BME280;17546;42.674;23.284;2022-12-07T12:56:28;94380.53;;;15.47;43.96
30819;BME280;17546;42.674;23.284;2022-12-07T13:01:43;94365.84;;;16.08;42.44
30819;BME280;17546;42.674;23.284;2022-12-07T13:04:24;94367.50;;;16.24;42.29
30819;BME280;17546;42.674;23.284;2022-12-07T13:06:51;94371.06;;;16.46;41.78
30819;BME280;17546;42.674;23.284;2022-12-07T13:09:35;94378.31;;;16.83;41.32
30819;BME280;17546;42.674;23.284;2022-12-07T13:12:04;94371.81;;;16.67;41.30
30819;BME280;17546;42.674;23.284;2022-12-07T13:17:53;94371.53;;;16.79;41.24
30819;BME280;17546;42.674;23.284;2022-12-07T13:20:05;94369.44;;;16.29;41.98
30819;BME280;17546;42.674;23.284;2022-12-07T13:28:00;94367.16;;;15.94;42.93
30819;BME280;17546;42.674;23.284;2022-12-07T13:30:27;94366.84;;;16.52;41.88
30819;BME280;17546;42.674;23.284;2022-12-07T13:32:56;94367.50;;;16.24;42.49
30819;BME280;17546;42.674;23.284;2022-12-07T13:35:36;94369.97;;;16.49;41.89
30819;BME280;17546;42.674;23.284;2022-12-07T13:38:17;94364.00;;;16.87;41.28
30819;BME280;17546;42.674;23.284;2022-12-07T13:41:12;94367.56;;;16.95;41.42
30819;BME280;17546;42.674;23.284;2022-12-07T13:43:50;94353.88;;;16.84;41.12
30819;BME280;17546;42.674;23.284;2022-12-07T13:46:34;94358.09;;;16.98;40.97
30819;BME280;17546;42.674;23.284;2022-12-07T13:49:01;94350.13;;;17.02;41.06
30819;BME280;17546;42.674;23.284;2022-12-07T13:51:28;94350.75;;;17.16;40.89
30819;BME280;17546;42.674;23.284;2022-12-07T13:54:15;94351.91;;;17.21;40.75
30819;BME280;17546;42.674;23.284;2022-12-07T13:56:40;94352.63;;;17.13;40.47
30819;BME280;17546;42.674;23.284;2022-12-07T13:59:16;94350.41;;;17.20;40.47
30819;BME280;17546;42.674;23.284;2022-12-07T14:01:45;94359.25;;;17.31;40.37
30819;BME280;17546;42.674;23.284;2022-12-07T14:04:19;94353.84;;;17.33;40.29
30819;BME280;17546;42.674;23.284;2022-12-07T14:06:52;94352.41;;;17.40;40.43
30819;BME280;17546;42.674;23.284;2022-12-07T14:09:23;94358.25;;;17.21;40.50
30819;BME280;17546;42.674;23.284;2022-12-07T14:11:51;94353.78;;;17.26;40.38
30819;BME280;17546;42.674;23.284;2022-12-07T14:14:20;94357.94;;;17.32;40.38
30819;BME280;17546;42.674;23.284;2022-12-07T14:24:46;94369.53;;;17.37;41.01
30819;BME280;17546;42.674;23.284;2022-12-07T14:27:23;94367.69;;;17.39;41.04
30819;BME280;17546;42.674;23.284;2022-12-07T14:29:51;94368.09;;;17.43;40.82
30819;BME280;17546;42.674;23.284;2022-12-07T14:32:25;94368.09;;;17.43;40.74
30819;BME280;17546;42.674;23.284;2022-12-07T14:35:02;94375.59;;;17.48;40.47
30819;BME280;17546;42.674;23.284;2022-12-07T14:37:29;94367.38;;;17.50;40.64
30819;BME280;17546;42.674;23.284;2022-12-07T14:39:56;94370.75;;;17.49;40.58
30819;BME280;17546;42.674;23.284;2022-12-07T14:42:24;94365.84;;;17.42;40.55
30819;BME280;17546;42.674;23.284;2022-12-07T14:44:50;94352.41;;;17.40;40.50
30819;BME280;17546;42.674;23.284;2022-12-07T14:47:15;94362.34;;;17.49;40.47
30819;BME280;17546;42.674;23.284;2022-12-07T14:49:41;94364.03;;;17.52;40.40
30819;BME280;17546;42.674;23.284;2022-12-07T14:52:13;94363.81;;;17.50;40.48
30819;BME280;17546;42.674;23.284;2022-12-07T14:54:41;94370.28;;;17.37;40.80
30819;BME280;17546;42.674;23.284;2022-12-07T14:57:08;94364.88;;;17.39;40.82
30819;BME280;17546;42.674;23.284;2022-12-07T14:59:38;94365.25;;;17.35;40.73
30819;BME280;17546;42.674;23.284;2022-12-07T15:02:04;94374.19;;;17.34;40.69
30819;BME280;17546;42.674;23.284;2022-12-07T15:04:45;94373.09;;;17.37;40.53
30819;BME280;17546;42.674;23.284;2022-12-07T15:07:18;94379.44;;;17.38;40.61
30819;BME280;17546;42.674;23.284;2022-12-07T15:09:45;94376.19;;;17.26;40.82
30819;BME280;17546;42.674;23.284;2022-12-07T15:12:10;94376.97;;;17.26;40.99